National Weather Service Raw Text Product

Displaying AFOS PIL: TAFFOD Received: 2017-11-15 00:36 UTC


958 
FTUS43 KDMX 150036 AAA
TAFFOD
TAF AMD
KFOD 150036Z 1501/1524 18011KT 5SM BR OVC004
      TEMPO 1501/1504 2SM -DZ BR
     FM150600 21007KT 5SM BR VCSH OVC004
     FM150800 27008KT P6SM OVC007
     FM151100 30011KT P6SM BKN045
     FM151400 31013G19KT P6SM FEW050=